Time;durP1;ratioP1;P1;durP2;ratioP2;P2;SDS_P1;SDS_P2;PMS_P1;PMS_P2;Temp;Humidity;BMP_temperature;BMP_pressure;BME280_temperature;BME280_humidity;BME280_pressure;Samples;Min_cycle;Max_cycle;Signal;HPM_P1;HPM_P2
2022/04/08 00:01:54;;;;;;;11.20;1.38;;;7.60;99.90;;;-146.41;100.00;57768.22;4996575;28;20053;-69
2022/04/08 00:04:21;;;;;;;11.70;1.40;;;7.60;99.90;;;-146.41;100.00;57768.22;5000929;28;20060;-69
2022/04/08 00:06:48;;;;;;;9.75;1.15;;;7.60;99.90;;;-146.41;100.00;57768.22;5002239;28;20065;-70
2022/04/08 00:09:15;;;;;;;18.27;1.38;;;7.60;99.90;;;-146.41;100.00;57768.22;4997888;28;20074;-69
2022/04/08 00:11:42;;;;;;;11.90;1.00;;;7.60;99.90;;;-146.41;100.00;57768.22;5000756;28;20111;-69
2022/04/08 00:14:09;;;;;;;8.25;1.30;;;7.60;99.90;;;-146.41;100.00;57768.22;5002904;28;20134;-69
2022/04/08 00:16:38;;;;;;;9.20;1.35;;;7.60;99.90;;;-146.41;100.00;57768.22;4999485;28;20050;-69
2022/04/08 00:19:05;;;;;;;10.25;1.17;;;7.50;99.90;;;-146.41;100.00;57768.22;5000354;28;20050;-69
2022/04/08 00:21:32;;;;;;;11.73;2.22;;;7.50;99.90;;;-146.41;100.00;57768.22;5000529;28;20084;-70
2022/04/08 00:23:59;;;;;;;7.43;1.75;;;7.50;99.90;;;-146.41;100.00;57768.22;5001625;28;20100;-69
2022/04/08 00:26:26;;;;;;;12.63;1.77;;;7.50;99.90;;;-146.41;100.00;57768.22;5000867;28;20392;-69
2022/04/08 00:28:53;;;;;;;6.97;1.08;;;7.40;99.90;;;-146.41;100.00;57768.22;5002723;28;20595;-69
2022/04/08 00:31:21;;;;;;;12.45;1.58;;;7.50;99.90;;;-146.41;100.00;57768.22;5012818;28;20066;-69
2022/04/08 00:33:48;;;;;;;8.23;1.27;;;7.50;99.90;;;-146.41;100.00;57768.22;4998345;28;20053;-70
2022/04/08 00:36:15;;;;;;;9.45;1.40;;;7.40;99.90;;;-146.41;100.00;57768.22;5033937;28;20070;-69
2022/04/08 00:38:42;;;;;;;13.60;1.80;;;7.40;99.90;;;-146.41;100.00;57768.22;4998626;28;20153;-69
2022/04/08 00:41:09;;;;;;;11.07;1.58;;;7.30;99.90;;;-146.41;100.00;57768.22;5001198;28;20085;-69
2022/04/08 00:43:38;;;;;;;10.07;1.67;;;7.30;99.90;;;-146.41;100.00;57768.22;4997986;28;20137;-70
2022/04/08 00:46:09;;;;;;;11.20;2.58;;;7.20;99.90;;;-146.41;100.00;57768.22;5002693;28;20054;-69
2022/04/08 00:48:37;;;;;;;10.77;1.42;;;7.30;99.90;;;-146.41;100.00;57768.22;4989772;28;20050;-69
2022/04/08 00:51:06;;;;;;;12.73;1.63;;;7.30;99.90;;;-146.41;100.00;57768.22;5000810;28;20416;-69
2022/04/08 00:53:36;;;;;;;10.18;1.55;;;7.20;99.90;;;-146.41;100.00;57768.22;5005377;28;20136;-69
2022/04/08 00:56:04;;;;;;;8.27;1.30;;;7.30;99.90;;;-146.41;100.00;57768.22;5002627;28;20516;-69
2022/04/08 00:58:35;;;;;;;11.65;1.50;;;7.20;99.90;;;-146.41;100.00;57768.22;4999478;28;20145;-70
2022/04/08 01:01:02;;;;;;;15.25;1.52;;;7.20;99.90;;;-146.41;100.00;57768.22;4996495;28;20067;-70
2022/04/08 01:03:29;;;;;;;12.02;1.50;;;7.20;99.90;;;-146.41;100.00;57768.22;5001003;28;20049;-69
2022/04/08 01:05:58;;;;;;;8.50;1.42;;;7.20;99.90;;;-146.41;100.00;57768.22;5002116;28;20504;-69
2022/04/08 01:08:25;;;;;;;7.65;1.15;;;7.20;99.90;;;-146.41;100.00;57768.22;5000293;28;20070;-70
2022/04/08 01:10:54;;;;;;;12.48;1.60;;;7.10;99.90;;;-146.41;100.00;57768.22;5001777;28;20068;-70
2022/04/08 01:13:22;;;;;;;7.80;1.33;;;7.10;99.90;;;-146.41;100.00;57768.22;5004063;28;20050;-70
2022/04/08 01:15:49;;;;;;;8.90;1.27;;;7.10;99.90;;;-146.41;100.00;57768.22;5000385;28;20060;-69
2022/04/08 01:18:16;;;;;;;12.40;1.48;;;7.00;99.90;;;-146.41;100.00;57768.22;4996192;28;20141;-70
2022/04/08 01:20:43;;;;;;;16.05;1.50;;;7.00;99.90;;;-146.41;100.00;57768.22;4996183;28;20089;-70
2022/04/08 01:23:11;;;;;;;11.88;1.25;;;7.00;99.90;;;-146.41;100.00;57768.22;5001603;28;20085;-70
2022/04/08 01:25:38;;;;;;;10.85;1.55;;;7.00;99.90;;;-146.41;100.00;57768.22;4996070;28;20046;-70
2022/04/08 01:28:05;;;;;;;10.13;1.27;;;7.00;99.90;;;-146.41;100.00;57768.22;4997945;28;20558;-70
2022/04/08 01:30:32;;;;;;;12.02;1.45;;;6.90;99.90;;;-146.41;100.00;57768.22;5001300;28;20562;-70
2022/04/08 01:32:59;;;;;;;17.55;2.20;;;6.90;99.90;;;-146.41;100.00;57768.22;5005558;28;20042;-70
2022/04/08 01:35:26;;;;;;;9.90;1.33;;;7.00;99.90;;;-146.41;100.00;57768.22;5000690;28;20131;-70
2022/04/08 01:37:53;;;;;;;11.10;1.83;;;6.90;99.90;;;-146.41;100.00;57768.22;4997922;28;20088;-69
2022/04/08 01:40:21;;;;;;;8.27;1.40;;;6.90;99.90;;;-146.41;100.00;57768.22;5002246;28;20148;-70
2022/04/08 01:42:48;;;;;;;13.13;1.27;;;6.90;99.90;;;-146.41;100.00;57768.22;5001906;28;20524;-70
2022/04/08 01:45:15;;;;;;;11.10;1.60;;;6.80;99.90;;;-146.41;100.00;57768.22;5003875;28;20168;-70
2022/04/08 01:47:42;;;;;;;7.47;1.73;;;6.80;99.90;;;-146.41;100.00;57768.22;5002827;28;20542;-70
2022/04/08 01:50:09;;;;;;;9.07;1.35;;;6.80;99.90;;;-146.41;100.00;57768.22;5002959;28;20074;-70
2022/04/08 01:52:36;;;;;;;9.27;1.85;;;6.80;99.90;;;-146.41;100.00;57768.22;4999475;28;20054;-70
2022/04/08 01:55:05;;;;;;;12.32;1.60;;;6.80;99.90;;;-146.41;100.00;57768.22;4997924;28;20049;-70
2022/04/08 01:57:33;;;;;;;12.13;1.77;;;6.70;99.90;;;-146.41;100.00;57768.22;4997150;28;20062;-70
2022/04/08 02:00:03;;;;;;;13.77;1.65;;;6.70;99.90;;;-146.41;100.00;57768.22;4997482;28;20053;-70
2022/04/08 02:02:30;;;;;;;18.52;2.47;;;6.70;99.90;;;-146.41;100.00;57768.22;4998442;28;20058;-69
2022/04/08 02:04:57;;;;;;;13.68;2.15;;;6.60;99.90;;;-146.41;100.00;57768.22;4998505;28;20149;-69
2022/04/08 02:07:24;;;;;;;11.80;1.75;;;6.70;99.90;;;-146.41;100.00;57768.22;5000107;28;20563;-70
2022/04/08 02:09:51;;;;;;;14.50;1.60;;;6.60;99.90;;;-146.41;100.00;57768.22;5001087;28;20593;-70
2022/04/08 02:12:18;;;;;;;9.98;1.80;;;6.70;99.90;;;-146.41;100.00;57768.22;4999111;28;20129;-71
2022/04/08 02:14:45;;;;;;;11.85;1.77;;;6.60;99.90;;;-146.41;100.00;57768.22;5013307;28;20073;-69
2022/04/08 02:17:12;;;;;;;16.35;2.00;;;6.60;99.90;;;-146.41;100.00;57768.22;4998366;28;20082;-69
2022/04/08 02:19:39;;;;;;;13.85;1.85;;;6.60;99.90;;;-146.41;100.00;57768.22;4996414;28;20054;-70
2022/04/08 02:22:07;;;;;;;14.23;1.92;;;6.60;99.90;;;-146.41;100.00;57768.22;5001684;28;20156;-70
2022/04/08 02:24:34;;;;;;;17.05;1.98;;;6.60;99.90;;;-146.41;100.00;57768.22;4999465;28;20073;-69
2022/04/08 02:27:05;;;;;;;16.13;1.73;;;6.60;99.90;;;-146.41;100.00;57768.22;4997614;28;20076;-69
2022/04/08 02:29:33;;;;;;;16.48;1.58;;;6.50;99.90;;;-146.41;100.00;57768.22;4989418;28;20468;-69
2022/04/08 02:32:01;;;;;;;10.82;1.67;;;6.40;99.90;;;-146.41;100.00;57768.22;4999627;28;20120;-69
2022/04/08 02:34:28;;;;;;;11.40;1.50;;;6.50;99.90;;;-146.41;100.00;57768.22;5003388;28;20137;-69
2022/04/08 02:36:55;;;;;;;12.57;1.85;;;6.40;99.90;;;-146.41;100.00;57768.22;5003341;28;20453;-69
2022/04/08 02:39:22;;;;;;;10.73;1.60;;;6.40;99.90;;;-146.41;100.00;57768.22;5001131;28;20133;-69
2022/04/08 02:41:49;;;;;;;12.77;3.53;;;6.40;99.90;;;-146.41;100.00;57768.22;5003056;28;20055;-69
2022/04/08 02:44:16;;;;;;;10.55;1.58;;;6.40;99.90;;;-146.41;100.00;57768.22;5030970;28;20125;-68
2022/04/08 02:46:43;;;;;;;14.02;2.05;;;6.40;99.90;;;-146.41;100.00;57768.22;5005282;28;20149;-69
2022/04/08 02:49:10;;;;;;;14.43;2.03;;;6.30;99.90;;;-146.41;100.00;57768.22;5009064;28;20050;-70
2022/04/08 02:51:37;;;;;;;9.77;2.10;;;6.30;99.90;;;-146.41;100.00;57768.22;5006843;28;20080;-69
2022/04/08 02:54:04;;;;;;;10.18;1.88;;;6.30;99.90;;;-146.41;100.00;57768.22;5004581;28;20046;-69
2022/04/08 02:56:31;;;;;;;8.48;1.40;;;6.20;99.90;;;-146.41;100.00;57768.22;5007222;28;20583;-69
2022/04/08 02:59:00;;;;;;;10.52;1.98;;;6.10;99.90;;;-146.41;100.00;57768.22;5006630;28;20504;-69
2022/04/08 03:01:27;;;;;;;14.27;1.83;;;6.10;99.90;;;-146.41;100.00;57768.22;4999842;28;20160;-69
2022/04/08 03:03:54;;;;;;;15.93;1.58;;;6.10;99.90;;;-146.41;100.00;57768.22;5003994;28;20046;-69
2022/04/08 03:06:21;;;;;;;13.43;1.63;;;6.10;99.90;;;-146.41;100.00;57768.22;5002546;28;20046;-69
2022/04/08 03:08:48;;;;;;;15.55;2.00;;;6.10;99.90;;;-146.41;100.00;57768.22;5005772;28;20579;-70
2022/04/08 03:11:17;;;;;;;14.88;1.75;;;6.10;99.90;;;-146.41;100.00;57768.22;5004549;28;20069;-68
2022/04/08 03:13:44;;;;;;;11.05;1.73;;;6.00;99.90;;;-146.41;100.00;57768.22;5005772;28;20073;-69
2022/04/08 03:16:11;;;;;;;9.30;1.70;;;6.00;99.90;;;-146.41;100.00;57768.22;5006320;28;20054;-70
2022/04/08 03:18:38;;;;;;;17.17;2.00;;;6.00;99.90;;;-146.41;100.00;57768.22;5004641;28;20062;-69
2022/04/08 03:21:05;;;;;;;11.85;1.38;;;6.00;99.90;;;-146.41;100.00;57768.22;5005668;28;20125;-69
2022/04/08 03:23:32;;;;;;;12.13;1.77;;;6.00;99.90;;;-146.41;100.00;57768.22;5004414;28;20112;-69
2022/04/08 03:26:00;;;;;;;14.32;1.52;;;6.00;99.90;;;-146.41;100.00;57768.22;5007332;28;20110;-70
2022/04/08 03:28:27;;;;;;;10.20;1.45;;;6.10;99.90;;;-146.41;100.00;57768.22;5005842;28;20092;-70
2022/04/08 03:30:54;;;;;;;12.10;1.90;;;6.10;99.90;;;-146.41;100.00;57768.22;5006665;28;20555;-70
2022/04/08 03:33:20;;;;;;;10.35;2.05;;;6.10;99.90;;;-146.41;100.00;57768.22;5004025;28;20129;-69
2022/04/08 03:35:47;;;;;;;21.85;2.17;;;6.10;99.90;;;-146.41;100.00;57768.22;5003886;28;20046;-69
2022/04/08 03:38:15;;;;;;;12.93;1.75;;;6.10;99.90;;;-146.41;100.00;57768.22;5001421;28;20201;-69
2022/04/08 03:40:42;;;;;;;14.02;1.70;;;6.10;99.90;;;-146.41;100.00;57768.22;5005650;28;20107;-70
2022/04/08 03:43:09;;;;;;;11.55;1.42;;;6.10;99.90;;;-146.41;100.00;57768.22;5004762;28;20148;-69
2022/04/08 03:45:36;;;;;;;21.70;3.70;;;6.00;99.90;;;-146.41;100.00;57768.22;5005343;28;20129;-70
2022/04/08 03:48:03;;;;;;;13.07;2.22;;;6.00;99.90;;;-146.41;100.00;57768.22;5001036;28;20081;-69
2022/04/08 03:50:30;;;;;;;10.75;1.65;;;6.10;99.90;;;-146.41;100.00;57768.22;5004838;28;20074;-69
2022/04/08 03:52:57;;;;;;;12.27;2.05;;;6.10;99.90;;;-146.41;100.00;57768.22;5004204;28;20112;-69
2022/04/08 03:55:24;;;;;;;13.38;1.73;;;6.10;99.90;;;-146.41;100.00;57768.22;5005974;28;20081;-69
2022/04/08 03:57:51;;;;;;;16.33;2.55;;;6.10;99.90;;;-146.41;100.00;57768.22;5003505;28;20088;-69
2022/04/08 04:00:18;;;;;;;15.38;1.70;;;6.10;99.90;;;-146.41;100.00;57768.22;5003356;28;20526;-69
2022/04/08 04:02:45;;;;;;;14.27;2.05;;;6.10;99.90;;;-146.41;100.00;57768.22;5004234;28;20129;-69
2022/04/08 04:05:13;;;;;;;9.55;1.77;;;6.10;99.90;;;-146.41;100.00;57768.22;5004305;28;20073;-69
2022/04/08 04:07:39;;;;;;;17.33;3.15;;;6.10;99.90;;;-146.41;100.00;57768.22;5000239;28;20389;-70
2022/04/08 04:10:07;;;;;;;11.70;1.52;;;6.10;99.90;;;-146.41;100.00;57768.22;5002439;28;20099;-69
2022/04/08 04:12:34;;;;;;;15.38;2.03;;;6.00;99.90;;;-146.41;100.00;57768.22;5003737;28;20081;-69
2022/04/08 04:15:03;;;;;;;21.25;2.42;;;6.00;99.90;;;-146.41;100.00;57768.22;5001585;28;20042;-69
2022/04/08 04:17:30;;;;;;;14.25;2.28;;;6.00;99.90;;;-146.41;100.00;57768.22;5008188;28;20121;-69
2022/04/08 04:19:57;;;;;;;16.02;1.90;;;6.00;99.90;;;-146.41;100.00;57768.22;4998372;28;20581;-68
2022/04/08 04:22:24;;;;;;;10.52;1.60;;;6.00;99.90;;;-146.41;100.00;57768.22;5002049;28;20132;-69
2022/04/08 04:24:51;;;;;;;16.52;2.05;;;5.90;99.90;;;-146.41;100.00;57768.22;5001936;28;20141;-69
2022/04/08 04:27:18;;;;;;;22.85;1.95;;;5.90;99.90;;;-146.41;100.00;57768.22;5001096;28;20073;-68
2022/04/08 04:29:45;;;;;;;14.50;1.85;;;5.90;99.90;;;-146.41;100.00;57768.22;5005356;28;20500;-69
2022/04/08 04:32:12;;;;;;;15.95;2.42;;;5.90;99.90;;;-146.41;100.00;57768.22;5002642;28;20125;-69
2022/04/08 04:34:40;;;;;;;15.48;2.25;;;5.90;99.90;;;-146.41;100.00;57768.22;5033006;28;20588;-69
2022/04/08 04:37:09;;;;;;;20.25;3.15;;;5.80;99.90;;;-146.41;100.00;57768.22;5015593;28;20076;-69
2022/04/08 04:39:37;;;;;;;20.27;2.75;;;5.80;99.90;;;-146.41;100.00;57768.22;5002562;28;20156;-70
2022/04/08 04:42:07;;;;;;;11.23;2.05;;;5.80;99.90;;;-146.41;100.00;57768.22;5004267;28;20046;-70
2022/04/08 04:44:34;;;;;;;11.80;1.92;;;5.80;99.90;;;-146.41;100.00;57768.22;4999684;28;20131;-69
2022/04/08 04:47:02;;;;;;;13.27;2.13;;;5.80;99.90;;;-146.41;100.00;57768.22;5000556;28;20078;-70
2022/04/08 04:49:29;;;;;;;18.95;2.67;;;5.80;99.90;;;-146.41;100.00;57768.22;5002197;28;20054;-69
2022/04/08 04:51:55;;;;;;;13.55;2.35;;;5.80;99.90;;;-146.41;100.00;57768.22;4997929;28;20140;-69
2022/04/08 04:54:22;;;;;;;15.82;2.40;;;5.80;99.90;;;-146.41;100.00;57768.22;5000077;28;20065;-69
2022/04/08 04:56:49;;;;;;;17.75;2.15;;;5.80;99.90;;;-146.41;100.00;57768.22;5002930;28;20487;-70
2022/04/08 04:59:16;;;;;;;15.15;2.40;;;5.80;99.90;;;-146.41;100.00;57768.22;4998526;28;20501;-69
2022/04/08 05:01:43;;;;;;;13.98;1.70;;;5.80;99.90;;;-146.41;100.00;57768.22;4998141;28;20129;-70
2022/04/08 05:04:10;;;;;;;14.00;1.52;;;5.80;99.90;;;-146.41;100.00;57768.22;5000787;28;20063;-70
2022/04/08 05:06:37;;;;;;;13.23;1.58;;;5.70;99.90;;;-146.41;100.00;57768.22;4995877;28;20078;-69
2022/04/08 05:09:05;;;;;;;12.00;1.60;;;5.70;99.90;;;-146.41;100.00;57768.22;4998953;28;20082;-69
2022/04/08 05:11:32;;;;;;;16.58;1.77;;;5.70;99.90;;;-146.41;100.00;57768.22;5001840;28;20050;-70
2022/04/08 05:14:00;;;;;;;14.63;1.73;;;5.70;99.90;;;-146.41;100.00;57768.22;4999060;28;20081;-70
2022/04/08 05:16:28;;;;;;;11.48;1.77;;;5.80;99.90;;;-146.41;100.00;57768.22;5005203;28;20054;-69
2022/04/08 05:18:56;;;;;;;15.00;2.00;;;5.80;99.90;;;-146.41;100.00;57768.22;5004323;28;20527;-70
2022/04/08 05:21:23;;;;;;;17.92;2.20;;;5.90;99.90;;;-146.41;100.00;57768.22;5001682;28;20050;-69
2022/04/08 05:23:50;;;;;;;11.15;1.70;;;5.90;99.90;;;-146.41;100.00;57768.22;5004096;28;20207;-69
2022/04/08 05:26:18;;;;;;;11.35;2.53;;;5.90;99.90;;;-146.41;100.00;57768.22;5002712;28;20133;-70
2022/04/08 05:28:46;;;;;;;10.48;1.85;;;5.90;99.90;;;-146.41;100.00;57768.22;5036148;28;20069;-70
2022/04/08 05:31:13;;;;;;;11.85;1.80;;;5.90;99.90;;;-146.41;100.00;57768.22;5004385;28;20611;-70
2022/04/08 05:33:40;;;;;;;13.43;2.03;;;6.00;99.90;;;-146.41;100.00;57768.22;5001448;28;20130;-70
2022/04/08 05:36:08;;;;;;;12.45;1.80;;;6.00;99.90;;;-146.41;100.00;57768.22;5004833;28;20535;-69
2022/04/08 05:38:35;;;;;;;19.75;2.10;;;6.00;99.90;;;-146.41;100.00;57768.22;4997285;28;20054;-70
2022/04/08 05:41:02;;;;;;;11.75;2.13;;;6.00;99.90;;;-146.41;100.00;57768.22;4997347;28;20128;-69
2022/04/08 05:43:29;;;;;;;16.63;1.67;;;6.00;99.90;;;-146.41;100.00;57768.22;5003554;28;20516;-69
2022/04/08 05:45:56;;;;;;;12.82;1.88;;;6.00;99.90;;;-146.41;100.00;57768.22;5008233;28;20127;-70
2022/04/08 05:48:23;;;;;;;7.15;1.52;;;6.00;99.90;;;-146.41;100.00;57768.22;5004873;28;20049;-70
2022/04/08 05:50:50;;;;;;;13.15;1.92;;;6.10;99.90;;;-146.41;100.00;57768.22;5002955;28;20042;-70
2022/04/08 05:53:17;;;;;;;9.75;1.08;;;6.10;99.90;;;-146.41;100.00;57768.22;5000109;28;20412;-70
2022/04/08 05:56:02;;;;;;;6.97;1.55;;;6.10;99.90;;;-146.41;100.00;57768.22;5005700;28;20334;-70
2022/04/08 05:58:31;;;;;;;8.80;1.58;;;6.10;99.90;;;-146.41;100.00;57768.22;5004641;28;20050;-70
2022/04/08 06:00:59;;;;;;;13.55;1.80;;;6.20;99.90;;;-146.41;100.00;57768.22;5004553;28;20088;-70
2022/04/08 06:03:26;;;;;;;8.15;1.15;;;6.20;99.90;;;-146.41;100.00;57768.22;4998667;28;20054;-72
2022/04/08 06:05:54;;;;;;;9.10;1.50;;;6.30;99.90;;;-146.41;100.00;57768.22;5001611;28;20070;-72
2022/04/08 06:08:22;;;;;;;12.13;1.67;;;6.30;99.90;;;-146.41;100.00;57768.22;5002883;28;20049;-73
2022/04/08 06:10:49;;;;;;;9.98;1.50;;;6.30;99.90;;;-146.41;100.00;57768.22;5005020;28;20100;-73
2022/04/08 06:13:17;;;;;;;10.45;1.50;;;6.40;99.90;;;-146.41;100.00;57768.22;5000399;28;20081;-72
2022/04/08 06:15:44;;;;;;;13.02;1.67;;;6.50;99.90;;;-146.41;100.00;57768.22;4987303;28;20431;-72
2022/04/08 06:18:15;;;;;;;13.50;1.50;;;6.50;99.90;;;-146.41;100.00;57768.22;5031333;28;20046;-72
2022/04/08 06:20:42;;;;;;;9.07;1.63;;;6.50;99.90;;;-146.41;100.00;57768.22;5004572;28;20137;-71
2022/04/08 06:23:09;;;;;;;14.15;1.55;;;6.50;99.90;;;-146.41;100.00;57768.22;5005329;28;20061;-72
2022/04/08 06:25:36;;;;;;;8.85;1.33;;;6.50;99.90;;;-146.41;100.00;57768.22;5008814;28;20057;-73
2022/04/08 06:28:06;;;;;;;10.40;1.48;;;6.40;99.90;;;-146.41;100.00;57768.22;5002228;28;20058;-71
2022/04/08 06:30:39;;;;;;;12.70;2.35;;;6.40;99.90;;;-146.41;100.00;57768.22;5003614;28;20778;-71
2022/04/08 06:33:08;;;;;;;12.57;2.03;;;6.40;99.90;;;-146.41;100.00;57768.22;4993629;28;20053;-72
2022/04/08 06:35:35;;;;;;;13.10;1.33;;;6.50;99.90;;;-146.41;100.00;57768.22;5004236;28;20081;-72
2022/04/08 06:38:07;;;;;;;15.95;1.98;;;6.40;99.90;;;-146.41;100.00;57768.22;5005767;28;20066;-72
2022/04/08 06:40:37;;;;;;;14.70;2.22;;;6.50;99.90;;;-146.41;100.00;57768.22;5007805;28;20053;-72
2022/04/08 06:43:05;;;;;;;18.17;2.58;;;6.60;99.90;;;-146.41;100.00;57768.22;5008377;28;20225;-72
2022/04/08 06:45:33;;;;;;;12.20;2.13;;;6.70;99.90;;;-146.41;100.00;57768.22;4989945;28;20149;-72
2022/04/08 06:48:00;;;;;;;12.18;1.30;;;6.80;99.90;;;-146.41;100.00;57768.22;5005322;28;20042;-71
2022/04/08 06:50:28;;;;;;;14.43;1.60;;;6.80;99.90;;;-146.41;100.00;57768.22;4988468;28;20048;-72
2022/04/08 06:52:59;;;;;;;13.85;2.00;;;6.90;99.90;;;-146.41;100.00;57768.22;5006727;28;20079;-72
2022/04/08 06:55:31;;;;;;;12.05;1.50;;;6.90;99.90;;;-146.41;100.00;57768.22;5004514;28;20362;-72
2022/04/08 06:58:03;;;;;;;11.23;1.85;;;7.10;99.90;;;-146.41;100.00;57768.22;5003566;28;20119;-72
2022/04/08 07:00:33;;;;;;;13.02;1.40;;;7.10;99.90;;;-146.41;100.00;57768.22;5020378;28;20133;-72
2022/04/08 07:03:00;;;;;;;15.05;1.30;;;7.10;99.90;;;-146.41;100.00;57768.22;5002174;28;20101;-72
2022/04/08 07:05:28;;;;;;;13.88;2.10;;;7.20;99.90;;;-146.41;100.00;57768.22;5003431;28;20062;-73
2022/04/08 07:07:56;;;;;;;11.07;1.67;;;7.20;99.90;;;-146.41;100.00;57768.22;5003966;28;20064;-72
2022/04/08 07:10:23;;;;;;;14.00;1.90;;;7.30;99.90;;;-146.41;100.00;57768.22;5001232;28;20054;-73
2022/04/08 07:12:50;;;;;;;10.57;1.58;;;7.40;99.90;;;-146.41;100.00;57768.22;5005746;28;20114;-72
2022/04/08 07:15:17;;;;;;;11.18;1.33;;;7.30;99.90;;;-146.41;100.00;57768.22;5007015;28;20147;-72
2022/04/08 07:17:44;;;;;;;15.38;2.45;;;7.40;99.90;;;-146.41;100.00;57768.22;5001718;28;20409;-72
2022/04/08 07:20:16;;;;;;;11.82;1.58;;;7.40;99.90;;;-146.41;100.00;57768.22;5002622;28;20049;-72
2022/04/08 07:22:45;;;;;;;8.65;1.50;;;7.50;99.90;;;-146.41;100.00;57768.22;5000897;28;20152;-72
2022/04/08 07:25:13;;;;;;;15.93;2.03;;;7.50;99.90;;;-146.41;100.00;57768.22;5004533;28;20049;-72
2022/04/08 07:27:48;;;;;;;11.98;1.40;;;7.70;99.90;;;-146.41;100.00;57768.22;5003099;28;20085;-72
2022/04/08 07:30:17;;;;;;;10.82;1.75;;;7.70;99.90;;;-146.41;100.00;57768.22;5006238;28;20519;-73
2022/04/08 07:32:46;;;;;;;17.30;1.77;;;7.70;99.90;;;-146.41;100.00;57768.22;5003510;28;20061;-71
2022/04/08 07:35:13;;;;;;;12.75;1.00;;;7.70;99.90;;;-146.41;100.00;57768.22;5003550;28;20417;-72
2022/04/08 07:37:40;;;;;;;9.05;1.27;;;7.80;99.90;;;-146.41;100.00;57768.22;4998747;28;20057;-72
2022/04/08 07:40:11;;;;;;;11.82;2.50;;;7.90;99.90;;;-146.41;100.00;57768.22;5000954;28;20101;-72
2022/04/08 07:42:39;;;;;;;18.55;5.15;;;7.80;99.90;;;-146.41;100.00;57768.22;5003772;28;20843;-73
2022/04/08 07:45:08;;;;;;;8.48;1.00;;;7.90;99.90;;;-146.41;100.00;57768.22;5004054;28;20046;-72
2022/04/08 07:47:36;;;;;;;17.70;4.55;;;7.90;99.90;;;-146.41;100.00;57768.22;5003536;28;20073;-72
2022/04/08 07:50:10;;;;;;;24.42;6.80;;;7.90;99.90;;;-146.41;100.00;57768.22;5005622;28;20103;-72
2022/04/08 07:52:39;;;;;;;10.40;1.50;;;7.80;99.90;;;-146.41;100.00;57768.22;5005398;28;20084;-72
2022/04/08 07:55:11;;;;;;;6.50;1.10;;;7.70;99.90;;;-146.41;100.00;57768.22;5004621;28;20045;-72
2022/04/08 07:57:50;;;;;;;12.95;2.63;;;7.70;99.90;;;-146.41;100.00;57768.22;4998951;28;20168;-71
2022/04/08 08:00:20;;;;;;;17.15;6.20;;;7.70;99.90;;;-146.41;100.00;57768.22;5003481;28;20049;-72
2022/04/08 08:02:49;;;;;;;10.93;1.55;;;7.60;99.90;;;-146.41;100.00;57768.22;5006582;28;20050;-72
2022/04/08 08:05:20;;;;;;;9.27;1.15;;;7.50;99.90;;;-146.41;100.00;57768.22;5002256;28;20062;-73
2022/04/08 08:07:52;;;;;;;15.70;3.95;;;7.40;99.90;;;-146.41;100.00;57768.22;5002783;28;20112;-72
2022/04/08 08:10:32;;;;;;;15.55;5.07;;;7.30;99.90;;;-146.41;100.00;57768.22;5000292;28;20160;-73
2022/04/08 08:13:00;;;;;;;11.85;1.60;;;7.20;99.90;;;-146.41;100.00;57768.22;5005732;28;20054;-72
2022/04/08 08:15:30;;;;;;;11.75;2.22;;;7.20;99.90;;;-146.41;100.00;57768.22;4999628;28;20050;-72
2022/04/08 08:17:57;;;;;;;15.32;1.98;;;7.00;99.90;;;-146.41;100.00;57768.22;5001702;28;20049;-72
2022/04/08 08:20:26;;;;;;;13.70;2.00;;;6.90;99.90;;;-146.41;100.00;57768.22;4998954;28;20065;-71
2022/04/08 08:22:53;;;;;;;10.00;1.70;;;6.80;99.90;;;-146.41;100.00;57768.22;5005544;28;20052;-72
2022/04/08 08:25:21;;;;;;;11.75;1.23;;;6.70;99.90;;;-146.41;100.00;57768.22;5000795;28;20141;-72
2022/04/08 08:27:56;;;;;;;7.20;1.40;;;6.60;99.90;;;-146.41;100.00;57768.22;5002248;28;20572;-72
2022/04/08 08:30:23;;;;;;;10.55;1.67;;;6.60;99.90;;;-146.41;100.00;57768.22;5033102;28;20066;-72
2022/04/08 08:32:51;;;;;;;10.57;2.70;;;6.60;99.90;;;-146.41;100.00;57768.22;5004710;28;20580;-72
2022/04/08 08:35:19;;;;;;;41.30;15.23;;;6.50;99.90;;;-146.41;100.00;57768.22;5003349;28;20046;-71
2022/04/08 08:37:48;;;;;;;28.13;10.75;;;6.40;99.90;;;-146.41;100.00;57768.22;5016177;28;20061;-72
2022/04/08 08:40:17;;;;;;;33.83;11.27;;;6.30;99.90;;;-146.41;100.00;57768.22;5005088;28;20085;-72
2022/04/08 08:42:46;;;;;;;16.15;3.58;;;6.40;99.90;;;-146.41;100.00;57768.22;4999545;28;20569;-72
2022/04/08 08:45:14;;;;;;;26.02;7.45;;;6.40;99.90;;;-146.41;100.00;57768.22;5002309;28;20082;-72
2022/04/08 08:47:48;;;;;;;14.85;4.30;;;6.30;99.90;;;-146.41;100.00;57768.22;4998002;28;20038;-72
2022/04/08 08:50:17;;;;;;;30.75;8.18;;;6.30;99.90;;;-146.41;100.00;57768.22;5003561;28;20089;-71
2022/04/08 08:52:50;;;;;;;9.48;1.40;;;6.30;99.90;;;-146.41;100.00;57768.22;4999787;28;20117;-72
2022/04/08 08:55:18;;;;;;;13.02;3.75;;;6.10;99.90;;;-146.41;100.00;57768.22;5000733;28;20041;-72
2022/04/08 08:57:47;;;;;;;14.40;2.08;;;6.10;99.90;;;-146.41;100.00;57768.22;4997787;28;20511;-72
2022/04/08 09:00:18;;;;;;;23.55;6.78;;;6.00;99.90;;;-146.41;100.00;57768.22;5005927;28;20053;-71
2022/04/08 09:02:48;;;;;;;8.23;2.08;;;6.00;99.90;;;-146.41;100.00;57768.22;4993292;28;20119;-72
2022/04/08 09:05:16;;;;;;;23.85;7.25;;;5.90;99.90;;;-146.41;100.00;57768.22;5001053;28;20112;-71
2022/04/08 09:07:59;;;;;;;77.90;29.23;;;5.90;99.90;;;-146.41;100.00;57768.22;5002506;28;21166;-71
2022/04/08 09:10:33;;;;;;;7.70;1.52;;;5.80;99.90;;;-146.41;100.00;57768.22;4998802;28;20148;-72
2022/04/08 09:13:03;;;;;;;46.20;13.65;;;5.80;99.90;;;-146.41;100.00;57768.22;4999312;28;20165;-72
2022/04/08 09:15:31;;;;;;;61.90;26.05;;;5.80;99.90;;;-146.41;100.00;57768.22;5003566;28;20050;-71
2022/04/08 09:18:13;;;;;;;27.23;7.80;;;5.70;99.90;;;-146.41;100.00;57768.22;4998440;28;20052;-71
2022/04/08 09:20:49;;;;;;;20.30;7.32;;;5.60;99.90;;;-146.41;100.00;57768.22;5032232;28;20050;-72
2022/04/08 09:23:20;;;;;;;26.80;10.38;;;5.70;99.90;;;-146.41;100.00;57768.22;4995629;28;20065;-72
2022/04/08 09:26:03;;;;;;;5.75;1.00;;;5.70;99.90;;;-146.41;100.00;57768.22;4975094;28;20069;-71
2022/04/08 09:28:36;;;;;;;6.50;0.80;;;5.70;99.90;;;-146.41;100.00;57768.22;4999789;28;20074;-71
2022/04/08 09:31:05;;;;;;;9.27;2.60;;;5.60;99.90;;;-146.41;100.00;57768.22;4998410;28;20074;-72
2022/04/08 09:33:32;;;;;;;88.63;30.58;;;5.60;99.90;;;-146.41;100.00;57768.22;5000803;28;20057;-70
2022/04/08 09:36:00;;;;;;;5.47;1.05;;;5.50;99.90;;;-146.41;100.00;57768.22;4999701;28;20141;-71
2022/04/08 09:38:32;;;;;;;17.25;6.03;;;5.40;99.90;;;-146.41;100.00;57768.22;4997193;28;20411;-71
2022/04/08 09:41:07;;;;;;;33.60;12.93;;;5.40;99.90;;;-146.41;100.00;57768.22;4999473;28;20489;-72
2022/04/08 09:43:36;;;;;;;3.00;0.70;;;5.40;99.90;;;-146.41;100.00;57768.22;5029677;28;20086;-71
2022/04/08 09:46:22;;;;;;;3.75;0.60;;;5.20;99.90;;;-146.41;100.00;57768.22;5000894;28;20467;-72
2022/04/08 09:48:49;;;;;;;3.10;0.60;;;5.10;99.90;;;-146.41;100.00;57768.22;5005314;28;20046;-72
2022/04/08 09:51:21;;;;;;;6.30;1.23;;;5.00;99.90;;;-146.41;100.00;57768.22;5013211;28;20073;-71
2022/04/08 09:53:55;;;;;;;7.32;3.15;;;5.00;99.90;;;-146.41;100.00;57768.22;5000189;28;20104;-71
2022/04/08 09:56:27;;;;;;;3.78;1.60;;;5.00;99.90;;;-146.41;100.00;57768.22;5003257;28;20061;-71
2022/04/08 09:59:14;;;;;;;4.43;1.02;;;4.90;99.90;;;-146.41;100.00;57768.22;5001985;28;20054;-72
2022/04/08 10:02:02;;;;;;;6.25;3.00;;;5.00;99.90;;;-146.41;100.00;57768.22;5006011;28;20431;-71
2022/04/08 10:04:32;;;;;;;3.03;0.80;;;5.00;99.90;;;-146.41;100.00;57768.22;5003378;28;20054;-72
2022/04/08 10:07:00;;;;;;;3.22;1.10;;;5.10;99.90;;;-146.41;100.00;57768.22;5004466;28;20084;-69